Share

Athol, KS

RAWS KIRWIN KS US (MTS746) Elev 1747 ft | 39.67 °N, 99.20 °W | Change Station

Current weather conditions updated 47 minutes ago

Clear
Clear
54 °F
Feels Like 54 °F
N
8
Wind Variable Wind from ENE
Gusts 12.0 mph
Sunrise 6:55 AM
Sunset 8:15 PM
Moon Waning Gibbous

Tomorrow is forecast to be Much Warmer than today.

Pressure 30.20 in
Visibility 10.0 miles
Clouds Clear
Dew Point 29 °F
Humidity 38%
Rainfall 0.00 in
Snow Depth Not available.
UV 5 out of 16
Pollen 9.00 out of 12
Air Quality Not available.
Flu Activity Sporadic
METAR KHDE 172135Z AUTO 09003KT 10SM CLR 11/M02 A3020 RMK AO2 T01071024

More Conditions Fewer Conditions

Pressure 30.20 in
Visibility 10.0 miles
Clouds Clear
Dew Point 29 °F
Humidity 38%
Rainfall 0.00 in
Snow Depth Not available.
UV 5 out of 16
Pollen 9.00 out of 12
Air Quality Not available.
Flu Activity Sporadic
METAR KHDE 172135Z AUTO 09003KT 10SM CLR 11/M02 A3020 RMK AO2 T01071024

More Conditions Fewer Conditions

10-Day Forecast

Almanac

Astronomy

Apr. 17, 2014 Rise Set
Actual Time 6:55 AM CDT 8:15 PM CDT
Civil Twilight 6:26 AM CDT 8:44 PM CDT
Nautical Twilight 5:53 AM CDT 9:17 PM CDT
Astronomical Twilight 5:17 AM CDT 9:53 PM CDT
Moon 11:02 PM CDT 8:28 AM CDT
Length of Visible Light 14h 17m
Length of Day
13h 20m
Tomorrow will be 2m 28s longer.
Waning Gibbous, 92% of the Moon is Illuminated
Today
Waning Gibbous
Apr 22
Last Quarter
Apr 29
New
May 6
First Quarter
May 14
Full

Today's Extremes

State Highs State Lows

Community

  • Morning Light
    Morning Light
  • New Day
    New Day
  • Lake Michigan Sunrise
    Lake Michigan Sunrise
  • sunset from izmir, narlıdere
    sunset from izmir, narlıdere
  • oregon cherry
    oregon cherry

WunderPhotos

Upload Photos

1,702,143 photos uploaded!

Nearby

Snow Depth

Station Depth Elevation
No new snow has been reported.

Coastal Water Temperatures

Place Temperature
No Stations Reporting

Earthquake Activity

City Distance Mag. Time & Date
No recent earthquake activity has been reported nearby.
Minimum magnitude displayed is 2.5.

Nearby Weather Stations

Station Location Temp. Dew Point Humidity Wind Precip. Elev Updated Type
RAWS KIRWIN KS, Kirwin, KS 54 °F 29 °F 38% ENE  at  8 mph 0.00 in / hr 1747 ft 3:56 PM CDT MADIS
Near 14th and K, Franklin, NE 58.3 °F 33 °F 38% North  at  2.0 mph 0.00 in / hr 1893 ft 4:43 PM CDT Rapid Fire
NonFedAWOS PHILLIPSBURG , Phillipsburg, KS 54 °F 27 °F 35% ENE  at  3 mph 0.00 in / hr 1906 ft 3:40 PM CDT MADIS

Show More Stations Show Fewer Stations

What do you think?

We're not finished. Please let us know what you like, what you don't like, and what you are still missing.